Time;durP1;ratioP1;P1;durP2;ratioP2;P2;SDS_P1;SDS_P2;PMS_P1;PMS_P2;Temp;Humidity;BMP_temperature;BMP_pressure;BME280_temperature;BME280_humidity;BME280_pressure;Samples;Min_cycle;Max_cycle;Signal;HPM_P1;HPM_P2
2021/10/27 00:02:54;;;;;;;1.13;0.80;;;21.20;53.60;;;;;;6289584;28;20107;-66
2021/10/27 00:05:54;;;;;;;1.40;1.00;;;21.20;53.50;;;;;;6298525;28;20025;-67
2021/10/27 00:08:57;;;;;;;0.88;0.82;;;21.20;53.50;;;;;;6277708;28;20395;-67
2021/10/27 00:11:58;;;;;;;1.13;0.90;;;21.20;53.50;;;;;;6272079;28;20452;-67
2021/10/27 00:14:59;;;;;;;1.70;0.88;;;21.20;53.60;;;;;;6273294;28;20033;-67
2021/10/27 00:18:00;;;;;;;1.08;0.90;;;21.20;53.50;;;;;;6282937;28;20078;-67
2021/10/27 00:21:03;;;;;;;0.77;0.77;;;21.20;53.50;;;;;;6296554;28;20071;-67
2021/10/27 00:24:04;;;;;;;1.15;0.95;;;21.20;53.50;;;;;;6294992;28;20040;-68
2021/10/27 00:27:09;;;;;;;1.10;1.00;;;21.20;53.60;;;;;;6290166;28;20093;-68
2021/10/27 00:30:12;;;;;;;0.80;0.80;;;21.20;53.60;;;;;;6295929;28;20017;-68
2021/10/27 00:33:13;;;;;;;1.23;0.95;;;21.20;53.50;;;;;;6295244;28;20048;-68
2021/10/27 00:36:13;;;;;;;1.40;1.02;;;21.20;53.50;;;;;;6296151;28;20028;-67
2021/10/27 00:39:14;;;;;;;1.05;0.93;;;21.20;53.50;;;;;;6296265;28;20017;-68
2021/10/27 00:42:14;;;;;;;0.82;0.77;;;21.20;53.60;;;;;;6295771;28;20064;-70
2021/10/27 00:45:21;;;;;;;1.30;0.80;;;21.20;53.60;;;;;;6296011;28;20031;-68
2021/10/27 00:48:26;;;;;;;1.10;0.98;;;21.20;53.60;;;;;;6275410;28;20017;-67
2021/10/27 00:51:30;;;;;;;0.90;0.80;;;21.20;53.60;;;;;;6270894;28;20036;-68
2021/10/27 00:54:33;;;;;;;1.65;1.10;;;21.20;53.60;;;;;;6271489;28;20482;-68
2021/10/27 00:57:36;;;;;;;1.92;0.88;;;21.20;53.60;;;;;;6290114;28;20021;-68
2021/10/27 01:00:37;;;;;;;1.15;0.82;;;21.20;53.60;;;;;;6291375;28;20029;-67
2021/10/27 01:03:38;;;;;;;0.98;0.70;;;21.20;53.60;;;;;;6273631;28;20021;-67
2021/10/27 01:06:42;;;;;;;1.10;0.90;;;21.20;53.50;;;;;;6271958;28;20482;-67
2021/10/27 01:09:43;;;;;;;0.83;0.83;;;21.20;53.60;;;;;;6287724;28;20498;-67
2021/10/27 01:12:46;;;;;;;1.15;0.90;;;21.20;54.30;;;;;;6280269;28;20064;-67
2021/10/27 01:15:47;;;;;;;1.63;1.10;;;21.20;53.60;;;;;;6294968;28;20020;-67
2021/10/27 01:18:49;;;;;;;0.70;0.70;;;21.20;54.30;;;;;;6276974;28;20553;-68
2021/10/27 01:21:53;;;;;;;1.23;0.90;;;21.20;53.60;;;;;;6268948;28;20398;-68
2021/10/27 01:24:55;;;;;;;1.88;1.13;;;21.20;53.60;;;;;;6270161;28;20041;-69
2021/10/27 01:28:00;;;;;;;0.68;0.63;;;21.20;53.60;;;;;;6271408;28;20021;-67
2021/10/27 01:31:08;;;;;;;1.00;0.90;;;21.20;53.60;;;;;;6281031;28;20035;-67
2021/10/27 01:34:08;;;;;;;0.88;0.57;;;21.20;53.60;;;;;;6295474;28;20025;-67
2021/10/27 01:37:13;;;;;;;0.65;0.60;;;21.20;53.60;;;;;;6294686;28;20501;-67
2021/10/27 01:40:18;;;;;;;;;;;21.20;53.70;;;;;;6295273;28;20451;-68
2021/10/27 01:43:19;;;;;;;0.70;0.60;;;21.20;53.60;;;;;;6294424;28;19939;-67
2021/10/27 01:46:31;;;;;;;1.08;0.80;;;21.20;53.60;;;;;;6288035;28;20467;-67
2021/10/27 01:49:39;;;;;;;1.02;0.70;;;21.20;53.60;;;;;;6244980;28;20031;-67
2021/10/27 01:52:42;;;;;;;0.75;0.70;;;21.20;53.70;;;;;;6275159;28;20103;-68
2021/10/27 01:55:42;;;;;;;1.08;0.70;;;21.20;53.60;;;;;;6294670;28;20397;-68
2021/10/27 01:58:43;;;;;;;1.70;0.60;;;21.20;53.60;;;;;;6270711;28;20040;-68
2021/10/27 02:01:44;;;;;;;0.68;0.68;;;21.20;53.60;;;;;;6274128;28;20021;-67
2021/10/27 02:04:45;;;;;;;1.00;0.90;;;21.20;53.60;;;;;;6293947;28;20020;-67
2021/10/27 02:07:46;;;;;;;0.82;0.80;;;21.20;53.60;;;;;;6294161;28;20013;-67
2021/10/27 02:10:46;;;;;;;0.65;0.55;;;21.20;53.60;;;;;;6293530;28;20520;-67
2021/10/27 02:13:47;;;;;;;0.70;0.70;;;21.20;53.60;;;;;;6293754;28;20050;-68
2021/10/27 02:16:48;;;;;;;0.60;0.60;;;21.20;53.60;;;;;;6288417;28;20086;-67
2021/10/27 02:19:49;;;;;;;0.95;0.73;;;21.20;53.60;;;;;;6268875;28;20033;-68
2021/10/27 02:22:49;;;;;;;0.93;0.70;;;21.20;53.70;;;;;;6280663;28;20044;-68
2021/10/27 02:25:50;;;;;;;0.82;0.80;;;21.20;53.70;;;;;;6293749;28;20028;-67
2021/10/27 02:28:51;;;;;;;0.75;0.60;;;21.20;53.70;;;;;;6271544;28;20081;-67
2021/10/27 02:31:52;;;;;;;0.82;0.70;;;21.20;53.70;;;;;;6280875;28;20028;-68
2021/10/27 02:34:52;;;;;;;0.82;0.68;;;21.20;53.70;;;;;;6292636;28;20029;-68
2021/10/27 02:37:53;;;;;;;1.08;0.75;;;21.20;53.70;;;;;;6293584;28;20409;-68
2021/10/27 02:40:53;;;;;;;0.70;0.70;;;21.20;53.60;;;;;;6293770;28;20059;-67
2021/10/27 02:43:54;;;;;;;1.50;0.70;;;21.20;53.70;;;;;;6293375;28;20401;-67
2021/10/27 02:46:54;;;;;;;0.80;0.70;;;21.20;53.70;;;;;;6276466;28;20018;-67
2021/10/27 02:49:55;;;;;;;0.90;0.57;;;21.20;53.60;;;;;;6244041;28;20470;-67
2021/10/27 02:52:56;;;;;;;0.85;0.70;;;21.20;53.70;;;;;;6278571;28;20033;-68
2021/10/27 02:55:56;;;;;;;0.70;0.70;;;21.20;53.70;;;;;;6292995;28;20028;-67
2021/10/27 02:58:57;;;;;;;0.43;0.43;;;21.20;53.70;;;;;;6292951;28;20481;-67
2021/10/27 03:01:58;;;;;;;0.80;0.60;;;21.20;53.70;;;;;;6292802;28;20485;-67
2021/10/27 03:04:58;;;;;;;0.60;0.60;;;21.20;53.70;;;;;;6292916;28;20336;-68
2021/10/27 03:07:59;;;;;;;0.93;0.65;;;21.20;53.70;;;;;;6293002;28;20025;-67
2021/10/27 03:11:00;;;;;;;0.85;0.70;;;21.20;53.70;;;;;;6290987;28;20359;-68
2021/10/27 03:14:01;;;;;;;0.70;0.63;;;21.20;53.70;;;;;;6291433;28;20021;-68
2021/10/27 03:17:01;;;;;;;0.50;0.50;;;21.20;53.70;;;;;;6292531;28;20500;-68
2021/10/27 03:20:03;;;;;;;1.23;0.70;;;21.20;54.30;;;;;;6292506;28;20058;-67
2021/10/27 03:23:03;;;;;;;0.50;0.50;;;21.20;53.70;;;;;;6292271;28;20020;-68
2021/10/27 03:26:04;;;;;;;0.90;0.80;;;21.20;53.70;;;;;;6286068;28;20062;-67
2021/10/27 03:29:04;;;;;;;0.95;0.60;;;21.20;53.70;;;;;;6293132;28;20121;-67
2021/10/27 03:32:05;;;;;;;0.75;0.60;;;21.20;53.70;;;;;;6291587;28;20024;-67
2021/10/27 03:35:06;;;;;;;1.05;0.70;;;21.20;53.70;;;;;;6292860;28;20025;-68
2021/10/27 03:38:07;;;;;;;0.70;0.60;;;21.20;53.70;;;;;;6292280;28;20029;-68
2021/10/27 03:41:08;;;;;;;0.60;0.50;;;21.20;53.70;;;;;;6292227;28;20029;-66
2021/10/27 03:44:08;;;;;;;0.50;0.50;;;21.20;54.30;;;;;;6292297;28;20328;-67
2021/10/27 03:47:09;;;;;;;0.70;0.60;;;21.20;53.70;;;;;;6280122;28;20036;-67
2021/10/27 03:50:13;;;;;;;0.50;0.50;;;21.20;53.70;;;;;;6267142;28;20036;-67
2021/10/27 03:53:13;;;;;;;0.60;0.52;;;21.20;53.80;;;;;;6287026;28;20024;-67
2021/10/27 03:56:14;;;;;;;0.80;0.60;;;21.20;53.70;;;;;;6289536;28;20036;-67
2021/10/27 04:03:12;;;;;;;0.60;0.60;;;21.20;53.70;;;;;;6285328;28;20032;-66
2021/10/27 04:06:13;;;;;;;0.73;0.60;;;21.20;53.70;;;;;;6290707;28;20039;-67
2021/10/27 04:09:13;;;;;;;0.57;0.50;;;21.20;53.70;;;;;;6267358;28;20033;-66
2021/10/27 04:12:14;;;;;;;1.30;0.80;;;21.20;54.00;;;;;;6276266;28;20124;-66
2021/10/27 04:15:14;;;;;;;0.98;0.65;;;21.20;53.70;;;;;;6286588;28;20446;-67
2021/10/27 04:18:16;;;;;;;0.73;0.60;;;21.20;53.70;;;;;;6277582;28;20240;-66
2021/10/27 04:21:17;;;;;;;0.47;0.47;;;21.20;53.70;;;;;;6270745;28;20028;-66
2021/10/27 04:24:17;;;;;;;0.57;0.57;;;21.20;53.70;;;;;;6278361;28;20383;-67
2021/10/27 04:27:18;;;;;;;0.60;0.57;;;21.20;53.70;;;;;;6267434;28;20029;-67
2021/10/27 04:30:19;;;;;;;0.60;0.50;;;21.20;53.70;;;;;;6267225;28;20029;-66
2021/10/27 04:33:21;;;;;;;0.90;0.50;;;21.20;53.70;;;;;;6293544;28;20440;-67
2021/10/27 04:36:22;;;;;;;0.85;0.65;;;21.20;53.70;;;;;;6296328;28;20086;-66
2021/10/27 04:39:23;;;;;;;0.47;0.47;;;21.20;53.70;;;;;;6296572;28;20555;-66
2021/10/27 04:42:23;;;;;;;0.65;0.63;;;21.20;53.70;;;;;;6281475;28;20037;-67
2021/10/27 04:45:25;;;;;;;0.60;0.60;;;21.20;53.70;;;;;;6270223;28;20067;-66
2021/10/27 04:48:26;;;;;;;0.85;0.60;;;21.20;53.70;;;;;;6251934;28;20022;-67
2021/10/27 04:51:26;;;;;;;0.52;0.52;;;21.20;53.70;;;;;;6251873;28;20021;-67
2021/10/27 04:54:27;;;;;;;2.45;0.60;;;21.20;53.70;;;;;;6271038;28;20028;-67
2021/10/27 04:57:28;;;;;;;0.47;0.43;;;21.20;53.70;;;;;;6283866;28;20102;-67
2021/10/27 05:00:29;;;;;;;0.80;0.60;;;21.20;53.80;;;;;;6296118;28;20032;-66
2021/10/27 05:03:29;;;;;;;0.50;0.50;;;21.20;53.80;;;;;;6274032;28;20074;-67
2021/10/27 05:06:30;;;;;;;1.02;0.70;;;21.20;53.80;;;;;;6272805;28;20029;-68
2021/10/27 05:09:31;;;;;;;0.82;0.55;;;21.20;53.80;;;;;;6274275;28;20100;-67
2021/10/27 05:12:31;;;;;;;0.50;0.50;;;21.20;53.80;;;;;;6288383;28;20054;-66
2021/10/27 05:15:32;;;;;;;0.60;0.60;;;21.20;53.80;;;;;;6295599;28;20024;-66
2021/10/27 05:18:33;;;;;;;0.80;0.70;;;21.20;53.80;;;;;;6278599;28;20025;-67
2021/10/27 05:21:34;;;;;;;0.80;0.60;;;21.20;53.80;;;;;;6270409;28;20031;-67
2021/10/27 05:24:35;;;;;;;1.00;0.50;;;21.20;53.80;;;;;;6295526;28;20017;-67
2021/10/27 05:27:37;;;;;;;0.68;0.60;;;21.20;53.80;;;;;;6294215;28;20051;-67
2021/10/27 05:30:38;;;;;;;0.40;0.40;;;21.20;53.80;;;;;;6278937;28;20025;-66
2021/10/27 05:33:39;;;;;;;0.98;0.70;;;21.20;53.80;;;;;;6274210;28;20032;-66
2021/10/27 05:36:41;;;;;;;0.85;0.70;;;21.20;53.80;;;;;;6279418;28;20047;-67
2021/10/27 05:39:41;;;;;;;0.63;0.60;;;21.20;53.80;;;;;;6295334;28;20020;-66
2021/10/27 05:42:42;;;;;;;0.60;0.60;;;21.20;53.80;;;;;;6293348;28;20460;-66
2021/10/27 05:45:43;;;;;;;0.85;0.55;;;21.20;53.80;;;;;;6294515;28;20437;-67
2021/10/27 05:48:47;;;;;;;0.60;0.60;;;21.20;53.80;;;;;;6246567;28;20040;-66
2021/10/27 05:51:53;;;;;;;0.50;0.50;;;21.20;53.80;;;;;;6253377;28;20119;-66
2021/10/27 05:58:04;;;;;;;0.65;0.50;;;21.30;53.70;;;;;;6269748;28;20079;-66
2021/10/27 06:01:04;;;;;;;0.50;0.40;;;21.30;53.70;;;;;;6263675;28;20075;-66
2021/10/27 06:04:05;;;;;;;1.10;0.75;;;21.30;53.80;;;;;;6267391;28;20028;-67
2021/10/27 06:07:05;;;;;;;0.93;0.57;;;21.20;53.80;;;;;;6274246;28;20032;-68
2021/10/27 06:10:07;;;;;;;1.70;0.80;;;21.30;53.90;;;;;;6268268;28;20124;-68
2021/10/27 06:13:10;;;;;;;1.83;1.15;;;21.20;53.90;;;;;;6286299;28;20021;-68
2021/10/27 06:16:14;;;;;;;7.90;1.90;;;21.20;53.60;;;;;;6295656;28;20051;-67
2021/10/27 06:19:15;;;;;;;5.38;2.00;;;21.20;53.40;;;;;;6294488;28;20501;-67
2021/10/27 06:22:16;;;;;;;3.33;1.80;;;21.20;53.80;;;;;;6282208;28;20074;-67
2021/10/27 06:25:16;;;;;;;4.82;1.80;;;21.20;53.70;;;;;;6294366;28;20025;-67
2021/10/27 06:28:26;;;;;;;3.70;2.00;;;21.20;53.60;;;;;;6294532;28;20020;-67
2021/10/27 06:34:38;;;;;;;5.53;2.70;;;21.20;53.50;;;;;;6270153;28;20055;-67
2021/10/27 06:47:31;;;;;;;3.20;1.92;;;21.20;53.70;;;;;;6258219;28;20021;-67
2021/10/27 06:50:31;;;;;;;2.85;2.00;;;21.20;53.70;;;;;;6265452;28;20121;-67
2021/10/27 06:53:32;;;;;;;4.15;2.40;;;21.20;53.70;;;;;;6285004;28;20050;-67
2021/10/27 06:56:35;;;;;;;4.10;2.10;;;21.20;53.70;;;;;;6292847;28;20031;-68
2021/10/27 06:59:39;;;;;;;2.65;2.05;;;21.20;53.70;;;;;;6269068;28;20567;-68
2021/10/27 07:14:59;;;;;;;6.88;2.17;;;21.20;53.70;;;;;;6293444;28;20052;-67
2021/10/27 07:15:39;;;;;;;2.50;1.80;;;21.20;53.70;;;;;;6244491;28;20037;-68
2021/10/27 07:18:40;;;;;;;3.65;2.20;;;21.20;53.70;;;;;;6275022;28;20027;-67
2021/10/27 07:21:42;;;;;;;2.90;1.92;;;21.20;53.70;;;;;;6292295;28;20509;-68
2021/10/27 07:24:44;;;;;;;4.72;2.08;;;21.20;53.80;;;;;;6291593;28;20032;-67
2021/10/27 07:27:46;;;;;;;4.63;2.40;;;21.20;53.80;;;;;;6278823;28;20036;-68
2021/10/27 07:30:47;;;;;;;2.72;2.03;;;21.20;53.80;;;;;;6293575;28;20025;-68
2021/10/27 07:33:55;;;;;;;4.78;2.00;;;21.30;53.90;;;;;;6293705;28;20099;-68
2021/10/27 07:43:29;;;;;;;2.22;1.85;;;21.20;53.90;;;;;;6294398;28;20070;-68
2021/10/27 07:46:30;;;;;;;6.43;1.90;;;21.20;53.90;;;;;;6288548;28;20017;-68
2021/10/27 07:49:30;;;;;;;3.15;1.85;;;21.20;53.80;;;;;;6282576;28;20506;-67
2021/10/27 07:52:31;;;;;;;2.97;1.92;;;21.20;53.40;;;;;;6293812;28;20086;-68
2021/10/27 07:55:33;;;;;;;2.50;1.85;;;21.20;53.00;;;;;;6272186;28;20287;-67
2021/10/27 07:58:34;;;;;;;3.70;1.75;;;21.20;53.10;;;;;;6278706;28;20025;-68
2021/10/27 08:02:00;;;;;;;3.83;2.10;;;21.30;53.20;;;;;;6293682;28;20048;-67
2021/10/27 08:05:08;;;;;;;4.80;2.15;;;21.20;53.20;;;;;;6275464;28;20067;-67
2021/10/27 08:08:12;;;;;;;4.25;1.92;;;21.20;53.30;;;;;;6280126;28;20071;-68
2021/10/27 08:11:14;;;;;;;3.85;1.80;;;21.20;53.20;;;;;;6268664;28;20084;-69
2021/10/27 08:14:15;;;;;;;2.55;1.60;;;21.30;53.30;;;;;;6284021;28;20442;-68
2021/10/27 08:17:16;;;;;;;4.53;1.60;;;21.20;53.20;;;;;;6291914;28;20393;-68
2021/10/27 08:20:19;;;;;;;3.10;1.63;;;21.20;53.20;;;;;;6272460;28;20029;-67
2021/10/27 08:23:21;;;;;;;6.30;1.80;;;21.30;53.40;;;;;;6287963;28;20078;-68
2021/10/27 08:26:25;;;;;;;2.28;1.50;;;21.30;53.40;;;;;;6296808;28;20020;-68
2021/10/27 08:29:28;;;;;;;3.08;1.65;;;21.20;53.30;;;;;;6292846;28;20031;-68
2021/10/27 08:32:40;;;;;;;2.03;1.42;;;21.30;53.40;;;;;;6280019;28;20091;-68
2021/10/27 08:35:40;;;;;;;3.90;1.65;;;21.20;53.30;;;;;;6274644;28;20025;-68
2021/10/27 08:38:41;;;;;;;2.72;1.55;;;21.30;53.40;;;;;;6290939;28;20095;-69
2021/10/27 08:41:42;;;;;;;4.78;1.77;;;21.30;53.40;;;;;;6273560;28;20037;-68
2021/10/27 08:44:44;;;;;;;3.28;1.70;;;21.30;53.50;;;;;;6288304;28;20033;-68
2021/10/27 08:47:49;;;;;;;3.05;1.67;;;21.30;53.50;;;;;;6283129;28;20013;-67
2021/10/27 08:50:50;;;;;;;1.70;1.40;;;21.30;53.50;;;;;;6274613;28;20029;-67
2021/10/27 08:53:52;;;;;;;3.20;1.70;;;21.30;53.60;;;;;;6279103;28;20377;-71
2021/10/27 08:56:56;;;;;;;3.47;1.52;;;21.30;53.50;;;;;;6290781;28;20025;-67
2021/10/27 09:00:08;;;;;;;3.80;1.73;;;21.20;53.30;;;;;;6249657;28;20168;-67
2021/10/27 09:03:24;;;;;;;3.65;1.45;;;21.30;53.20;;;;;;6250722;28;20479;-67
2021/10/27 09:06:29;;;;;;;2.67;1.67;;;21.20;53.00;;;;;;6298401;28;20032;-68
2021/10/27 09:36:56;;;;;;;3.25;1.55;;;21.20;52.90;;;;;;6273205;28;20478;-66
2021/10/27 09:43:34;;;;;;;4.50;1.92;;;21.20;52.90;;;;;;6272519;28;20171;-66
2021/10/27 09:47:21;;;;;;;2.53;1.25;;;21.20;52.90;;;;;;6271989;28;20078;-67
2021/10/27 10:04:13;;;;;;;2.97;1.20;;;21.30;53.20;;;;;;6253588;28;20033;-67
2021/10/27 10:07:15;;;;;;;3.47;1.40;;;21.30;53.20;;;;;;6276249;28;20024;-67
2021/10/27 10:10:16;;;;;;;2.85;1.50;;;21.30;53.30;;;;;;6248797;28;20108;-67
2021/10/27 10:13:19;;;;;;;2.25;1.50;;;21.30;53.30;;;;;;6274658;28;20029;-66
2021/10/27 10:16:20;;;;;;;2.35;1.40;;;21.30;53.30;;;;;;6297018;28;20020;-66
2021/10/27 10:19:23;;;;;;;3.25;1.50;;;21.30;53.40;;;;;;6281090;28;20021;-67
2021/10/27 10:22:36;;;;;;;1.98;1.30;;;21.30;53.40;;;;;;6277137;28;20028;-67
2021/10/27 10:25:36;;;;;;;2.13;1.25;;;21.30;53.40;;;;;;6273160;28;20083;-66
2021/10/27 10:28:41;;;;;;;3.47;1.30;;;21.30;53.40;;;;;;6271739;28;20017;-66
2021/10/27 10:31:42;;;;;;;3.13;1.40;;;21.30;53.40;;;;;;6270612;28;20028;-65
2021/10/27 10:34:47;;;;;;;4.55;1.50;;;21.20;53.40;;;;;;6271893;28;20485;-66
2021/10/27 10:57:57;;;;;;;2.97;1.60;;;21.30;53.20;;;;;;6271843;28;20033;-69
2021/10/27 11:01:36;;;;;;;6.10;1.77;;;21.30;53.20;;;;;;6271101;28;20493;-66
2021/10/27 11:38:14;;;;;;;2.97;1.45;;;21.30;53.40;;;;;;6269876;28;20710;-66
2021/10/27 11:41:57;;;;;;;3.13;1.50;;;21.30;53.40;;;;;;6270355;28;20024;-68
2021/10/27 11:45:05;;;;;;;2.28;1.20;;;21.30;53.40;;;;;;6277915;28;20017;-67
2021/10/27 11:48:31;;;;;;;2.33;1.17;;;21.30;53.40;;;;;;6292061;28;20043;-70
2021/10/27 11:51:30;;;;;;;5.03;1.48;;;21.30;53.40;;;;;;6275377;28;20037;-69
2021/10/27 11:54:31;;;;;;;1.77;1.10;;;21.30;53.50;;;;;;6278298;28;20055;-71
2021/10/27 11:57:33;;;;;;;2.67;1.08;;;21.30;53.50;;;;;;6277049;28;20094;-69
2021/10/27 12:00:38;;;;;;;3.42;1.30;;;21.30;53.50;;;;;;6272734;28;20302;-69
2021/10/27 12:03:41;;;;;;;2.72;1.45;;;21.30;53.60;;;;;;6273171;28;20021;-69
2021/10/27 12:07:03;;;;;;;2.53;1.23;;;21.30;53.60;;;;;;6287021;28;20479;-69
2021/10/27 12:10:29;;;;;;;2.67;1.42;;;21.30;53.60;;;;;;6278460;28;20094;-70
2021/10/27 12:19:50;;;;;;;1.10;0.80;;;21.30;53.70;;;;;;6284207;28;20031;-69
2021/10/27 12:22:56;;;;;;;2.10;1.10;;;21.30;53.70;;;;;;6279391;28;20031;-69
2021/10/27 12:26:07;;;;;;;2.42;1.23;;;21.30;53.60;;;;;;6270699;28;20021;-70
2021/10/27 12:29:16;;;;;;;2.63;1.30;;;21.40;53.60;;;;;;6264249;28;20378;-69
2021/10/27 12:32:17;;;;;;;2.83;1.30;;;21.40;53.60;;;;;;6283564;28;20410;-71
2021/10/27 12:35:18;;;;;;;1.83;1.30;;;21.40;53.70;;;;;;6288558;28;20068;-70
2021/10/27 12:38:29;;;;;;;1.63;1.20;;;21.30;53.60;;;;;;6275945;28;20079;-69
2021/10/27 12:41:31;;;;;;;2.08;1.10;;;21.30;53.60;;;;;;6271357;28;20116;-66
2021/10/27 12:44:33;;;;;;;1.77;1.00;;;21.30;53.60;;;;;;6282378;28;20032;-67
2021/10/27 12:47:38;;;;;;;1.83;1.10;;;21.30;53.70;;;;;;6280051;28;20036;-69
2021/10/27 12:50:55;;;;;;;3.42;1.30;;;21.30;53.70;;;;;;6273207;28;20104;-66
2021/10/27 12:54:02;;;;;;;2.08;1.20;;;21.40;53.80;;;;;;6270850;28;20031;-70
2021/10/27 12:57:04;;;;;;;2.75;1.17;;;21.30;53.70;;;;;;6271915;28;20409;-68
2021/10/27 13:00:20;;;;;;;3.78;1.30;;;21.30;53.80;;;;;;6264863;28;20025;-68
2021/10/27 13:19:11;;;;;;;2.33;1.05;;;21.40;53.90;;;;;;6286442;28;20103;-67
2021/10/27 13:32:25;;;;;;;5.50;1.63;;;21.30;53.60;;;;;;6260711;28;20061;-66
2021/10/27 13:35:26;;;;;;;4.32;1.60;;;21.30;53.40;;;;;;6248684;28;20033;-66
2021/10/27 13:38:33;;;;;;;4.15;1.52;;;21.30;53.40;;;;;;6283444;28;20091;-68
2021/10/27 13:41:36;;;;;;;5.70;1.52;;;21.30;53.20;;;;;;6279068;28;20043;-67
2021/10/27 13:45:15;;;;;;;5.05;1.25;;;21.30;53.20;;;;;;6284647;28;20028;-67
2021/10/27 14:08:01;;;;;;;9.27;2.05;;;21.30;53.00;;;;;;6286525;28;20115;-67
2021/10/27 14:11:12;;;;;;;4.03;1.75;;;21.30;53.10;;;;;;6271431;28;20047;-67
2021/10/27 14:14:21;;;;;;;4.10;1.95;;;21.30;53.00;;;;;;6264869;28;20023;-67
2021/10/27 15:20:04;;;;;;;7.13;1.23;;;21.40;53.50;;;;;;6270477;28;20037;-68
2021/10/27 15:29:35;;;;;;;7.10;1.83;;;21.40;53.20;;;;;;6269941;28;20025;-67
2021/10/27 15:52:02;;;;;;;7.03;1.60;;;21.40;53.40;;;;;;6255833;28;20025;-67
2021/10/27 15:55:06;;;;;;;2.75;1.10;;;21.40;53.40;;;;;;6269477;28;20036;-65
2021/10/27 15:58:06;;;;;;;2.30;1.13;;;21.50;53.50;;;;;;6276720;28;20040;-65
2021/10/27 16:01:08;;;;;;;2.53;1.23;;;21.40;53.40;;;;;;6269286;28;20040;-64
2021/10/27 16:04:09;;;;;;;3.13;1.38;;;21.50;54.20;;;;;;6277335;28;20067;-65
2021/10/27 16:07:10;;;;;;;4.07;1.70;;;21.50;53.60;;;;;;6291483;28;20500;-64
2021/10/27 16:10:16;;;;;;;4.18;1.10;;;21.50;53.60;;;;;;6268022;28;20045;-65
2021/10/27 16:13:17;;;;;;;2.50;1.10;;;21.50;53.60;;;;;;6281638;28;20115;-65
2021/10/27 16:16:18;;;;;;;3.33;1.38;;;21.40;53.60;;;;;;6289869;28;20112;-64
2021/10/27 16:19:20;;;;;;;2.53;1.30;;;21.50;53.60;;;;;;6284247;28;20089;-64
2021/10/27 16:22:21;;;;;;;1.95;1.10;;;21.50;53.60;;;;;;6283028;28;20420;-65
2021/10/27 16:25:23;;;;;;;1.25;0.98;;;21.50;53.70;;;;;;6282144;28;20482;-65
2021/10/27 16:28:24;;;;;;;2.90;1.10;;;21.50;53.70;;;;;;6291940;28;20028;-65
2021/10/27 16:31:25;;;;;;;1.67;1.05;;;21.50;53.60;;;;;;6283993;28;20036;-65
2021/10/27 16:34:26;;;;;;;2.15;0.93;;;21.50;53.70;;;;;;6284862;28;20353;-65
2021/10/27 16:37:27;;;;;;;2.13;1.10;;;21.50;53.70;;;;;;6287487;28;20037;-65
2021/10/27 16:40:28;;;;;;;3.20;1.50;;;21.50;53.70;;;;;;6272992;28;20110;-65
2021/10/27 16:43:29;;;;;;;1.58;0.90;;;21.50;53.70;;;;;;6294584;28;20036;-65
2021/10/27 16:46:30;;;;;;;1.10;0.70;;;21.50;53.70;;;;;;6265904;28;20044;-71
2021/10/27 16:49:31;;;;;;;2.08;0.82;;;21.50;53.70;;;;;;6272081;28;20025;-66
2021/10/27 16:52:31;;;;;;;2.15;1.08;;;21.50;53.80;;;;;;6263638;28;20040;-65
2021/10/27 16:55:32;;;;;;;2.17;1.20;;;21.50;53.80;;;;;;6285386;28;20056;-64
2021/10/27 16:58:33;;;;;;;3.30;1.50;;;21.50;53.70;;;;;;6278345;28;20486;-65
2021/10/27 17:01:37;;;;;;;2.67;1.42;;;21.50;53.60;;;;;;6265655;28;20048;-64
2021/10/27 17:04:39;;;;;;;3.97;1.30;;;21.50;53.50;;;;;;6259937;28;20017;-64
2021/10/27 17:07:42;;;;;;;5.88;1.52;;;21.40;53.30;;;;;;6274463;28;20580;-65
2021/10/27 17:10:44;;;;;;;3.25;1.80;;;21.40;53.40;;;;;;6270324;28;20037;-65
2021/10/27 17:13:45;;;;;;;4.47;1.95;;;21.40;53.30;;;;;;6279688;28;20097;-65
2021/10/27 17:16:48;;;;;;;5.95;1.77;;;21.40;53.30;;;;;;6290130;28;20037;-64
2021/10/27 17:19:49;;;;;;;3.33;1.70;;;21.40;53.30;;;;;;6267428;28;20252;-65
2021/10/27 17:22:57;;;;;;;5.15;1.80;;;21.40;53.20;;;;;;6279785;28;20119;-65
2021/10/27 17:25:59;;;;;;;4.95;1.73;;;21.40;53.20;;;;;;6288126;28;20102;-64
2021/10/27 17:29:03;;;;;;;3.17;1.52;;;21.40;53.30;;;;;;6280888;28;20069;-65
2021/10/27 17:32:04;;;;;;;4.03;1.70;;;21.40;53.20;;;;;;6278543;28;20029;-65
2021/10/27 17:35:17;;;;;;;6.45;1.80;;;21.40;53.40;;;;;;6280447;28;20078;-65
2021/10/27 17:38:17;;;;;;;7.60;2.10;;;21.30;53.10;;;;;;6285292;28;20696;-65
2021/10/27 17:41:19;;;;;;;6.95;1.90;;;21.40;53.20;;;;;;6292408;28;20039;-64
2021/10/27 17:44:20;;;;;;;3.67;2.25;;;21.40;53.10;;;;;;6268082;28;20022;-65
2021/10/27 17:47:27;;;;;;;4.57;1.98;;;21.40;53.20;;;;;;6260796;28;20024;-65
2021/10/27 17:50:37;;;;;;;3.85;1.40;;;21.40;53.20;;;;;;6281452;28;20041;-65
2021/10/27 18:00:16;;;;;;;3.85;1.38;;;21.40;53.50;;;;;;6286083;28;20025;-65
2021/10/27 18:03:18;;;;;;;2.92;1.52;;;21.40;53.60;;;;;;6293369;28;20042;-65
2021/10/27 18:06:19;;;;;;;7.00;1.40;;;21.40;53.60;;;;;;6278137;28;20020;-65
2021/10/27 18:09:19;;;;;;;3.75;1.52;;;21.40;53.70;;;;;;6287278;28;20028;-64
2021/10/27 18:12:23;;;;;;;3.47;1.20;;;21.40;53.70;;;;;;6264967;28;20056;-64
2021/10/27 18:15:26;;;;;;;4.82;1.40;;;21.40;53.70;;;;;;6292653;28;20090;-64
2021/10/27 18:18:33;;;;;;;6.38;1.33;;;21.40;53.70;;;;;;6285259;28;20107;-65
2021/10/27 18:21:47;;;;;;;3.40;1.23;;;21.40;53.70;;;;;;6274331;28;20092;-65
2021/10/27 18:38:11;;;;;;;11.77;2.20;;;21.40;53.50;;;;;;6293484;28;20502;-66
2021/10/27 18:44:13;;;;;;;11.63;1.83;;;21.40;53.50;;;;;;6293952;28;20032;-65
2021/10/27 18:47:15;;;;;;;4.65;1.58;;;21.40;53.50;;;;;;6259220;28;20201;-65
2021/10/27 18:50:17;;;;;;;3.25;1.88;;;21.40;53.60;;;;;;6243832;28;20052;-65
2021/10/27 18:53:39;;;;;;;3.80;1.42;;;21.40;53.60;;;;;;6263086;28;20025;-65
2021/10/27 18:59:49;;;;;;;3.75;1.55;;;21.40;53.60;;;;;;6293493;28;20477;-65
2021/10/27 19:12:40;;;;;;;2.35;1.23;;;21.40;53.60;;;;;;6250229;28;20057;-65
2021/10/27 19:15:44;;;;;;;2.85;1.35;;;21.40;53.60;;;;;;6268126;28;20040;-65
2021/10/27 19:18:45;;;;;;;2.97;1.40;;;21.40;53.60;;;;;;6284096;28;20076;-65
2021/10/27 19:21:46;;;;;;;1.85;1.27;;;21.40;53.60;;;;;;6291549;28;20477;-66
2021/10/27 20:07:36;;;;;;;1.42;1.05;;;21.40;53.80;;;;;;6272295;28;20478;-66
2021/10/27 20:24:28;;;;;;;1.90;1.33;;;21.40;53.80;;;;;;6289077;28;20097;-65
2021/10/27 20:30:25;;;;;;;1.60;1.10;;;21.40;53.80;;;;;;6297018;28;20017;-65
2021/10/27 20:53:18;;;;;;;1.30;0.82;;;21.40;53.90;;;;;;6284412;28;20024;-65
2021/10/27 20:56:20;;;;;;;1.10;0.90;;;21.40;53.80;;;;;;6296044;28;20027;-65
2021/10/27 20:59:35;;;;;;;0.90;0.70;;;21.40;53.90;;;;;;6295624;28;20024;-65
2021/10/27 21:02:48;;;;;;;1.13;0.88;;;21.40;53.90;;;;;;6295580;28;20024;-65
2021/10/27 21:12:47;;;;;;;1.55;1.10;;;21.40;53.90;;;;;;6286665;28;20057;-66
2021/10/27 21:15:49;;;;;;;1.77;0.95;;;21.40;53.80;;;;;;6269950;28;20091;-66
2021/10/27 21:18:49;;;;;;;0.98;0.80;;;21.40;53.90;;;;;;6271088;28;20470;-65
2021/10/27 21:21:50;;;;;;;1.20;0.60;;;21.40;53.90;;;;;;6270301;28;20500;-65
2021/10/27 21:24:53;;;;;;;1.20;0.98;;;21.40;53.90;;;;;;6272508;28;20029;-66
2021/10/27 21:31:45;;;;;;;1.10;0.70;;;21.40;53.90;;;;;;6294551;28;20107;-65
2021/10/27 21:44:40;;;;;;;1.40;0.80;;;21.40;53.90;;;;;;6294998;28;20401;-67
2021/10/27 21:47:42;;;;;;;0.90;0.70;;;21.40;53.90;;;;;;6265525;28;20040;-67
2021/10/27 21:50:42;;;;;;;1.05;0.70;;;21.40;53.90;;;;;;6265007;28;20032;-67
2021/10/27 21:53:43;;;;;;;0.85;0.60;;;21.40;54.00;;;;;;6269753;28;20570;-67
2021/10/27 21:56:44;;;;;;;0.95;0.80;;;21.40;54.00;;;;;;6278520;28;20090;-67
2021/10/27 21:59:45;;;;;;;1.10;0.68;;;21.40;54.60;;;;;;6294643;28;20028;-67
2021/10/27 22:02:45;;;;;;;1.02;0.80;;;21.40;53.90;;;;;;6279479;28;20024;-67
2021/10/27 22:05:46;;;;;;;0.98;0.88;;;21.40;53.90;;;;;;6269769;28;20017;-67
2021/10/27 22:08:47;;;;;;;0.75;0.60;;;21.40;53.90;;;;;;6269348;28;20017;-67
2021/10/27 22:11:51;;;;;;;0.90;0.80;;;21.40;53.90;;;;;;6269268;28;20075;-67
2021/10/27 22:14:55;;;;;;;0.80;0.60;;;21.40;53.90;;;;;;6269502;28;20458;-67
2021/10/27 22:17:56;;;;;;;0.73;0.70;;;21.40;53.90;;;;;;6267964;28;20036;-67
2021/10/27 22:20:57;;;;;;;0.98;0.77;;;21.40;53.90;;;;;;6269330;28;20029;-67
2021/10/27 22:23:57;;;;;;;1.00;0.70;;;21.40;54.00;;;;;;6288048;28;20058;-67
2021/10/27 22:26:58;;;;;;;0.60;0.60;;;21.40;53.90;;;;;;6293165;28;20355;-67
2021/10/27 22:29:59;;;;;;;1.02;0.73;;;21.40;53.90;;;;;;6292727;28;20020;-67
2021/10/27 22:33:00;;;;;;;0.88;0.70;;;21.40;53.90;;;;;;6292621;28;20028;-67
2021/10/27 22:36:01;;;;;;;0.70;0.70;;;21.40;53.90;;;;;;6293633;28;20025;-67
2021/10/27 22:39:04;;;;;;;0.65;0.60;;;21.40;54.60;;;;;;6293556;28;20028;-67
2021/10/27 22:42:04;;;;;;;1.35;0.65;;;21.40;53.90;;;;;;6292139;28;20531;-67
2021/10/27 22:45:05;;;;;;;1.40;0.85;;;21.40;54.00;;;;;;6293304;28;20024;-67
2021/10/27 22:48:08;;;;;;;0.88;0.70;;;21.40;54.00;;;;;;6256996;28;20036;-67